This is the latest recevied weather packets stored in our database for station/object KG7KID-5. If no packets are shown the sender has not sent any weather packets the latest 1 day(s).
| Time | Temp. | Humidity | Pressure | Rain* | Wind** | Luminosity | Snow |
|---|---|---|---|---|---|---|---|
| 1778055634 | 11.11° C | 47% | 929.7 hPa | 0 mm | 0 m/s | - | - |
| 1778055288 | 11.11° C | 47% | 929.7 hPa | 0 mm | 0 m/s | - | - |
| 1778048279 | 13.89° C | 37% | 929.1 hPa | 0 mm | 0 m/s | - | - |
| 1778048087 | 13.89° C | 37% | 929.1 hPa | 0 mm | 0 m/s | - | - |
| 1778046775 | 15° C | 32% | 928.9 hPa | 0 mm | 0 m/s | - | - |
| 1778046588 | 15° C | 32% | 928.9 hPa | 0 mm | 0 m/s | - | - |
| 1778045678 | 15° C | 33% | 928.7 hPa | 0 mm | 0 m/s | - | - |
| 1778045569 | 15° C | 33% | 928.7 hPa | 0 mm | 0 m/s | - | - |
| 1778045269 | 15° C | 33% | 928.7 hPa | 0 mm | 0 m/s | - | - |
| 1778042742 | 16.11° C | 31% | 928.4 hPa | 0 mm | 0 m/s | - | - |
| 1778042667 | 16.11° C | 31% | 928.4 hPa | 0 mm | 0 m/s | - | - |
| 1778042367 | 16.11° C | 30% | 928.4 hPa | 0 mm | 0 m/s | - | - |
| 1778041642 | 16.67° C | 30% | 928.3 hPa | 0 mm | 0 m/s | - | - |
| 1778041466 | 16.67° C | 30% | 928.3 hPa | 0 mm | 0 m/s | - | - |
| 1778040796 | 16.67° C | 30% | 928.1 hPa | 0 mm | 0 m/s | - | - |
| 1778037637 | 17.22° C | 29% | 927.2 hPa | 0 mm | 0 m/s | - | - |
| 1778037496 | 17.22° C | 29% | 927.2 hPa | 0 mm | 0 m/s | - | - |
| 1778037196 | 17.22° C | 29% | 927.1 hPa | 0 mm | 0 m/s | - | - |
| 1778036730 | 17.78° C | 29% | 926.9 hPa | 0 mm | 0 m/s | - | - |
| 1778036596 | 17.78° C | 29% | 926.9 hPa | 0 mm | 0 m/s | - | - |
| 1778034910 | 17.78° C | 28% | 926.2 hPa | 0 mm | 0 m/s | - | - |
| 1778034796 | 17.78° C | 28% | 926.2 hPa | 0 mm | 0 m/s | - | - |
| 1778033296 | 18.33° C | 27% | 925.6 hPa | 0 mm | 0 m/s | - | - |
| 1778031796 | 19.44° C | 25% | 925.1 hPa | 0 mm | 0 m/s | - | - |
| 1778029397 | 20° C | 26% | 924.5 hPa | 0 mm | 0 m/s | - | - |
* Rain latest hour (hover to see other rain measurements)
** Current wind speed in m/s (hover to see current wind gust speed)